Granby, CO (80446)

10:06 AM MDT en Marzo 29, 2015 (GMT -0600)
Granby Ranch | | Change Station
CLOSE
Current Station
Estación meteorológica personal
Location: Granby, CO
Altura: 8360 ft
Estaciones meteorológicas cercanas

Alt 8360 ft 40.05 °N, 105.91 °W | Updated 60 seconds ago

Despejado
Despejado
45.2 ° F
Sensación térmica 45 ° F
N
1.0
Viento Variable Viento desde ONO
Gusts 3.0 mph

Hoy
Alta -- | Baja -- ° F
--% Posibilidad de precipitaciones
Ayer
Alta -- | Baja -- ° F
Precip. -- pul
6:52 AM 7:24 PM
Gibosa creciente, 72% visible
Presión 30.37 pul
Visibilidad 10.0 Millas
Nubes Despejado
Vientos helados 45 ° F
Punto de rocío 18 ° F
Humedad 33%
Precipitaciones 0.00 pul
Espesor de la nieve No disponible.
UV 4 de una escala de 12
Polen 10.60 de una escala de 12
Calidad del aire No disponible.
Flu Activity No disponible.
METAR K20V 291556Z AUTO 24004KT 10SM CLR 10/M10 A3037 RMK AO2

More Conditions Fewer Conditions

Presión 30.37 pul
Visibilidad 10.0 Millas
Nubes Despejado
Vientos helados 45 ° F
Punto de rocío 18 ° F
Humedad 33%
Precipitaciones 0.00 pul
Espesor de la nieve No disponible.
UV 4 de una escala de 12
Polen 10.60 de una escala de 12
Calidad del aire No disponible.
Flu Activity No disponible.
METAR K20V 291556Z AUTO 24004KT 10SM CLR 10/M10 A3037 RMK AO2

More Conditions Fewer Conditions

10-Day Weather Forecast

Almanac

Astronomía

Mar. 29, 2015 Salida Puesta
Hora real
Crepúsculo civil
Crepúsculo náutico
Crepúsculo astronómico
Luna
Horas de luz
Horas de luz
Tomorrow will be .
, % of the Moon is Illuminated

Extremos de hoy

Máximos del estado Bajos del estado

Community

WunderPhotos

Upload Photos

1,809,276 ¡fotos cargadas!

WunderBlogs® & News

Nearby

Calidad del aire

  Calidad del aire Índice AQ Contaminante
Not available.

Grosos de nieve

Estación Profundido Altura

Actividad de terremotos

Ciudad Distance Mag. Tiempo y dato
Magnitud mínima muestra es 2,5.

Temperaturas de aguas costeras

Lugar Temperatura

Stations

Estaciones meteorológicas cercanas

Ubicación de la estación Temp. Vientos helados Punto de rocío Humedad Viento Precip. Alt Actualizado Tipo